Time;durP1;ratioP1;P1;durP2;ratioP2;P2;SDS_P1;SDS_P2;PMS_P1;PMS_P2;Temp;Humidity;BMP_temperature;BMP_pressure;BME280_temperature;BME280_humidity;BME280_pressure;Samples;Min_cycle;Max_cycle;Signal;HPM_P1;HPM_P2
2022/05/29 00:01:07;;;;;;;7.00;1.85;;;;;;;;;;4991350;28;20229;-62
2022/05/29 00:03:32;;;;;;;9.18;2.22;;;;;;;;;;5002926;28;20212;-61
2022/05/29 00:05:58;;;;;;;7.18;1.95;;;;;;;;;;4996379;28;20234;-61
2022/05/29 00:08:25;;;;;;;6.60;1.60;;;;;;;;;;5007279;28;20220;-61
2022/05/29 00:10:50;;;;;;;6.95;1.75;;;;;;;;;;4990722;28;20624;-61
2022/05/29 00:13:15;;;;;;;6.38;1.45;;;;;;;;;;5007067;28;20248;-61
2022/05/29 00:15:41;;;;;;;7.72;1.48;;;;;;;;;;5011065;28;20589;-61
2022/05/29 00:18:06;;;;;;;8.55;1.65;;;;;;;;;;5009990;28;20291;-62
2022/05/29 00:20:32;;;;;;;9.30;1.98;;;;;;;;;;5009900;28;20311;-61
2022/05/29 00:22:58;;;;;;;8.20;1.70;;;;;;;;;;5010963;28;20288;-62
2022/05/29 00:25:23;;;;;;;3.72;1.20;;;;;;;;;;5008372;28;20260;-62
2022/05/29 00:27:48;;;;;;;5.45;1.55;;;;;;;;;;5001146;28;20675;-62
2022/05/29 00:30:13;;;;;;;4.07;1.52;;;;;;;;;;4991017;28;20214;-62
2022/05/29 00:32:38;;;;;;;6.60;1.58;;;;;;;;;;5017136;28;20216;-61
2022/05/29 00:35:04;;;;;;;4.05;1.30;;;;;;;;;;5006050;28;20296;-61
2022/05/29 00:37:29;;;;;;;6.15;1.67;;;;;;;;;;5002898;28;20223;-62
2022/05/29 00:39:54;;;;;;;8.50;1.67;;;;;;;;;;5004161;28;20311;-61
2022/05/29 00:42:21;;;;;;;5.88;1.30;;;;;;;;;;4990764;28;20231;-61
2022/05/29 00:44:46;;;;;;;8.07;1.67;;;;;;;;;;5022936;28;20220;-61
2022/05/29 00:47:14;;;;;;;6.00;1.85;;;;;;;;;;4992924;28;20239;-61
2022/05/29 00:49:39;;;;;;;6.78;1.80;;;;;;;;;;5004026;28;20686;-61
2022/05/29 00:52:16;;;;;;;6.20;1.65;;;;;;;;;;5025516;28;20212;-61
2022/05/29 00:54:43;;;;;;;5.38;2.00;;;;;;;;;;5006565;28;20228;-62
2022/05/29 00:57:10;;;;;;;6.35;1.73;;;;;;;;;;4998617;28;20271;-61
2022/05/29 00:59:35;;;;;;;8.23;1.98;;;;;;;;;;4996130;28;20209;-61
2022/05/29 01:02:01;;;;;;;5.07;1.92;;;;;;;;;;4989998;28;20664;-61
2022/05/29 01:04:26;;;;;;;4.00;1.98;;;;;;;;;;5024961;28;20205;-61
2022/05/29 01:06:52;;;;;;;7.55;1.90;;;;;;;;;;5003269;28;20217;-61
2022/05/29 01:09:17;;;;;;;6.30;2.30;;;;;;;;;;5023500;28;20215;-61
2022/05/29 01:11:42;;;;;;;7.20;1.92;;;;;;;;;;5023352;28;20228;-61
2022/05/29 01:14:24;;;;;;;8.23;2.03;;;;;;;;;;4993566;28;20246;-61
2022/05/29 01:16:56;;;;;;;6.80;2.20;;;;;;;;;;5008938;28;20255;-62
2022/05/29 01:19:37;;;;;;;7.25;1.98;;;;;;;;;;5011352;28;20208;-61
2022/05/29 01:22:06;;;;;;;6.25;1.80;;;;;;;;;;5008293;28;20205;-62
2022/05/29 01:24:38;;;;;;;8.60;1.88;;;;;;;;;;4994629;28;20221;-61
2022/05/29 01:27:05;;;;;;;9.57;2.00;;;;;;;;;;5019480;28;20286;-61
2022/05/29 01:29:33;;;;;;;6.20;1.88;;;;;;;;;;4999121;28;20201;-61
2022/05/29 01:32:02;;;;;;;6.38;1.77;;;;;;;;;;4999799;28;20295;-61
2022/05/29 01:34:29;;;;;;;6.00;1.70;;;;;;;;;;5012240;28;20243;-61
2022/05/29 01:37:00;;;;;;;5.22;1.70;;;;;;;;;;5009220;28;20264;-61
2022/05/29 01:39:28;;;;;;;7.25;2.10;;;;;;;;;;4995306;28;20228;-61
2022/05/29 01:41:56;;;;;;;9.18;2.13;;;;;;;;;;5009311;28;20213;-61
2022/05/29 01:44:34;;;;;;;10.80;2.40;;;;;;;;;;5022365;28;20228;-61
2022/05/29 01:47:03;;;;;;;7.50;2.00;;;;;;;;;;5019479;28;20548;-61
2022/05/29 01:49:29;;;;;;;9.52;1.88;;;;;;;;;;5014688;28;20219;-61
2022/05/29 01:52:02;;;;;;;7.50;1.73;;;;;;;;;;5029062;28;20208;-61
2022/05/29 01:54:30;;;;;;;7.90;1.90;;;;;;;;;;5027033;28;20228;-61
2022/05/29 01:56:56;;;;;;;7.78;2.25;;;;;;;;;;5004003;28;20251;-61
2022/05/29 01:59:24;;;;;;;8.02;1.90;;;;;;;;;;5027913;28;20660;-61
2022/05/29 02:01:53;;;;;;;7.05;1.95;;;;;;;;;;5013553;28;20201;-61
2022/05/29 02:04:18;;;;;;;8.20;2.03;;;;;;;;;;5027610;28;20217;-61
2022/05/29 02:09:32;;;;;;;9.43;2.30;;;;;;;;;;5001713;28;20553;-61
2022/05/29 02:11:58;;;;;;;8.63;2.15;;;;;;;;;;5008056;28;20205;-61
2022/05/29 02:14:24;;;;;;;7.45;1.95;;;;;;;;;;5027769;28;20212;-61
2022/05/29 02:16:53;;;;;;;9.13;1.98;;;;;;;;;;4994165;28;20232;-61
2022/05/29 02:19:20;;;;;;;9.68;2.63;;;;;;;;;;5003853;28;20209;-61
2022/05/29 02:21:47;;;;;;;6.45;1.95;;;;;;;;;;5012457;28;20713;-61
2022/05/29 02:24:13;;;;;;;7.60;2.25;;;;;;;;;;5026786;28;20225;-61
2022/05/29 02:26:40;;;;;;;10.07;2.30;;;;;;;;;;5011643;28;20213;-61
2022/05/29 02:29:08;;;;;;;7.53;2.05;;;;;;;;;;4999979;28;20279;-61
2022/05/29 02:31:41;;;;;;;9.30;2.40;;;;;;;;;;5020843;28;20689;-61
2022/05/29 02:34:12;;;;;;;7.05;2.45;;;;;;;;;;5011234;28;20219;-61
2022/05/29 02:36:40;;;;;;;8.50;2.63;;;;;;;;;;5011379;28;20235;-61
2022/05/29 02:39:12;;;;;;;11.02;2.67;;;;;;;;;;4997372;28;20217;-61
2022/05/29 02:41:42;;;;;;;6.63;2.65;;;;;;;;;;5019726;28;20212;-61
2022/05/29 02:44:12;;;;;;;8.55;2.90;;;;;;;;;;5027366;28;20581;-61
2022/05/29 02:46:48;;;;;;;9.57;2.35;;;;;;;;;;5027291;28;20321;-60
2022/05/29 02:49:17;;;;;;;11.45;2.15;;;;;;;;;;5011586;28;20229;-60
2022/05/29 02:51:46;;;;;;;8.07;2.50;;;;;;;;;;5026526;28;20216;-60
2022/05/29 02:54:12;;;;;;;6.63;2.20;;;;;;;;;;5026332;28;20236;-61
2022/05/29 02:56:38;;;;;;;7.05;2.42;;;;;;;;;;5011232;28;20216;-60
2022/05/29 02:59:03;;;;;;;9.95;2.72;;;;;;;;;;5017748;28;20244;-60
2022/05/29 03:01:28;;;;;;;7.50;2.58;;;;;;;;;;5007739;28;20232;-61
2022/05/29 03:04:00;;;;;;;9.55;2.50;;;;;;;;;;5012016;28;20236;-61
2022/05/29 03:06:31;;;;;;;8.55;2.53;;;;;;;;;;5010951;28;20271;-61
2022/05/29 03:09:15;;;;;;;9.60;2.83;;;;;;;;;;5019233;28;20221;-61
2022/05/29 03:11:41;;;;;;;9.45;2.75;;;;;;;;;;4997458;28;20540;-61
2022/05/29 03:14:21;;;;;;;7.45;2.45;;;;;;;;;;5025717;28;20287;-61
2022/05/29 03:16:46;;;;;;;7.32;2.72;;;;;;;;;;5008523;28;20235;-61
2022/05/29 03:19:13;;;;;;;9.05;3.15;;;;;;;;;;4999124;28;20221;-61
2022/05/29 03:21:45;;;;;;;8.90;2.75;;;;;;;;;;5002383;28;20213;-61
2022/05/29 03:24:18;;;;;;;10.32;3.20;;;;;;;;;;5011629;28;20223;-61
2022/05/29 03:26:57;;;;;;;8.93;2.88;;;;;;;;;;5011870;28;20633;-61
2022/05/29 03:29:24;;;;;;;9.77;3.38;;;;;;;;;;5009579;28;20205;-61
2022/05/29 03:31:49;;;;;;;8.93;2.90;;;;;;;;;;4996563;28;20683;-61
2022/05/29 03:34:15;;;;;;;7.72;2.85;;;;;;;;;;5025409;28;20219;-61
2022/05/29 03:36:45;;;;;;;8.52;3.60;;;;;;;;;;5006149;28;20235;-61
2022/05/29 03:39:10;;;;;;;9.52;3.10;;;;;;;;;;4999944;28;20212;-61
2022/05/29 03:41:39;;;;;;;7.18;2.80;;;;;;;;;;5002313;28;20279;-61
2022/05/29 03:44:05;;;;;;;8.68;2.83;;;;;;;;;;5018336;28;20259;-61
2022/05/29 03:46:30;;;;;;;10.35;2.80;;;;;;;;;;5011686;28;20311;-61
2022/05/29 03:48:55;;;;;;;6.88;2.60;;;;;;;;;;5003913;28;20209;-61
2022/05/29 03:51:20;;;;;;;9.27;2.40;;;;;;;;;;4994067;28;20205;-61
2022/05/29 03:53:46;;;;;;;9.15;2.35;;;;;;;;;;5011137;28;20641;-61
2022/05/29 03:56:11;;;;;;;8.10;2.92;;;;;;;;;;5007938;28;20314;-61
2022/05/29 03:58:36;;;;;;;6.97;2.58;;;;;;;;;;5000737;28;20674;-61
2022/05/29 04:01:02;;;;;;;7.00;2.50;;;;;;;;;;5007184;28;20220;-61
2022/05/29 04:03:27;;;;;;;7.63;2.42;;;;;;;;;;4990951;28;20205;-61
2022/05/29 04:05:53;;;;;;;7.63;2.70;;;;;;;;;;4991757;28;20815;-61
2022/05/29 04:13:45;;;;;;;8.48;2.33;;;;;;;;;;4997031;28;20338;-62
2022/05/29 04:16:11;;;;;;;8.45;2.58;;;;;;;;;;5009553;28;20339;-61
2022/05/29 04:18:37;;;;;;;6.32;2.42;;;;;;;;;;4991611;28;20690;-61
2022/05/29 04:21:02;;;;;;;9.20;3.10;;;;;;;;;;4994519;28;20215;-62
2022/05/29 04:23:27;;;;;;;9.13;2.50;;;;;;;;;;5022925;28;20213;-61
2022/05/29 04:25:53;;;;;;;6.80;2.30;;;;;;;;;;4996733;28;20223;-61
2022/05/29 04:28:18;;;;;;;5.40;2.50;;;;;;;;;;4996206;28;20296;-61
2022/05/29 04:30:43;;;;;;;10.32;2.83;;;;;;;;;;5004689;28;20201;-61
2022/05/29 04:33:08;;;;;;;7.93;2.13;;;;;;;;;;5009869;28;20212;-61
2022/05/29 04:35:36;;;;;;;11.55;2.55;;;;;;;;;;5010738;28;20212;-62
2022/05/29 04:38:02;;;;;;;5.55;2.22;;;;;;;;;;5024250;28;20212;-60
2022/05/29 04:40:27;;;;;;;7.05;2.70;;;;;;;;;;4996000;28;20217;-61
2022/05/29 04:42:52;;;;;;;6.22;2.20;;;;;;;;;;4998098;28;20214;-61
2022/05/29 04:45:18;;;;;;;8.10;2.25;;;;;;;;;;5012150;28;20585;-61
2022/05/29 04:47:43;;;;;;;8.20;2.20;;;;;;;;;;5014075;28;20270;-61
2022/05/29 04:50:08;;;;;;;6.45;2.15;;;;;;;;;;5002943;28;20209;-61
2022/05/29 04:52:34;;;;;;;7.03;2.38;;;;;;;;;;5002328;28;20291;-61
2022/05/29 04:54:59;;;;;;;6.60;2.42;;;;;;;;;;4994821;28;20553;-61
2022/05/29 04:57:24;;;;;;;8.40;2.40;;;;;;;;;;4994803;28;21319;-61
2022/05/29 04:59:50;;;;;;;6.93;2.78;;;;;;;;;;5004462;28;20216;-61
2022/05/29 05:02:16;;;;;;;7.93;2.35;;;;;;;;;;4994751;28;20217;-62
2022/05/29 05:04:41;;;;;;;7.13;2.50;;;;;;;;;;5023031;28;20196;-61
2022/05/29 05:07:06;;;;;;;6.63;2.25;;;;;;;;;;5012936;28;20684;-61
2022/05/29 05:09:31;;;;;;;7.70;2.30;;;;;;;;;;5006373;28;20217;-61
2022/05/29 05:11:57;;;;;;;6.32;2.28;;;;;;;;;;5008340;28;20204;-62
2022/05/29 05:14:22;;;;;;;9.20;2.65;;;;;;;;;;4993420;28;20209;-61
2022/05/29 05:16:48;;;;;;;8.95;2.13;;;;;;;;;;5006550;28;20755;-61
2022/05/29 05:19:13;;;;;;;7.07;2.20;;;;;;;;;;5021340;28;20576;-61
2022/05/29 05:21:38;;;;;;;5.85;2.58;;;;;;;;;;5005585;28;20212;-61
2022/05/29 05:24:04;;;;;;;6.13;2.35;;;;;;;;;;5013775;28;20211;-61
2022/05/29 05:26:29;;;;;;;5.93;2.30;;;;;;;;;;5014032;28;20566;-61
2022/05/29 05:28:55;;;;;;;6.30;2.10;;;;;;;;;;4998118;28;20217;-61
2022/05/29 05:31:20;;;;;;;4.50;2.00;;;;;;;;;;4994686;28;20217;-61
2022/05/29 05:33:45;;;;;;;7.93;2.50;;;;;;;;;;5014179;28;20208;-61
2022/05/29 05:36:11;;;;;;;8.40;2.47;;;;;;;;;;5012519;28;20232;-61
2022/05/29 05:38:37;;;;;;;5.45;1.98;;;;;;;;;;5013530;28;20217;-61
2022/05/29 05:41:02;;;;;;;5.43;1.80;;;;;;;;;;5015853;28;20658;-61
2022/05/29 05:43:27;;;;;;;8.77;1.88;;;;;;;;;;5009625;28;20274;-61
2022/05/29 05:45:52;;;;;;;8.82;2.78;;;;;;;;;;5013849;28;20205;-61
2022/05/29 05:48:18;;;;;;;5.50;1.90;;;;;;;;;;5009271;28;20294;-61
2022/05/29 05:50:43;;;;;;;5.68;2.10;;;;;;;;;;4993875;28;20719;-61
2022/05/29 05:53:08;;;;;;;8.55;2.10;;;;;;;;;;5003837;28;20235;-61
2022/05/29 05:55:36;;;;;;;7.55;2.15;;;;;;;;;;5011868;28;20666;-61
2022/05/29 05:58:02;;;;;;;7.80;1.92;;;;;;;;;;5008480;28;20209;-61
2022/05/29 06:00:27;;;;;;;5.57;2.15;;;;;;;;;;5005313;28;20690;-61
2022/05/29 06:02:52;;;;;;;9.30;2.17;;;;;;;;;;5006359;28;20308;-62
2022/05/29 06:05:18;;;;;;;6.30;2.33;;;;;;;;;;4993203;28;20590;-61
2022/05/29 06:07:43;;;;;;;8.05;2.00;;;;;;;;;;5009711;28;20220;-61
2022/05/29 06:10:08;;;;;;;6.35;2.00;;;;;;;;;;5009825;28;20225;-61
2022/05/29 06:12:34;;;;;;;6.65;2.20;;;;;;;;;;5018358;28;20220;-62
2022/05/29 06:14:59;;;;;;;5.85;1.90;;;;;;;;;;5013398;28;20288;-62
2022/05/29 06:17:24;;;;;;;7.20;2.50;;;;;;;;;;4995765;28;20658;-62
2022/05/29 06:19:50;;;;;;;5.65;1.90;;;;;;;;;;5023288;28;20576;-61
2022/05/29 06:22:15;;;;;;;7.25;2.45;;;;;;;;;;5005091;28;20212;-61
2022/05/29 06:24:41;;;;;;;5.60;1.90;;;;;;;;;;5012052;28;20219;-61
2022/05/29 06:27:06;;;;;;;6.47;1.67;;;;;;;;;;5007668;28;20279;-61
2022/05/29 06:29:32;;;;;;;7.70;1.90;;;;;;;;;;4999703;28;20299;-61
2022/05/29 06:31:59;;;;;;;6.07;1.63;;;;;;;;;;5000403;28;20259;-61
2022/05/29 06:34:24;;;;;;;4.40;2.00;;;;;;;;;;5027751;28;20209;-61
2022/05/29 06:36:50;;;;;;;4.45;1.50;;;;;;;;;;4994102;28;20229;-62
2022/05/29 06:39:15;;;;;;;6.57;1.75;;;;;;;;;;4995740;28;20204;-62
2022/05/29 06:41:40;;;;;;;5.15;1.67;;;;;;;;;;4998603;28;20208;-61
2022/05/29 06:44:06;;;;;;;7.40;1.80;;;;;;;;;;5012151;28;20219;-61
2022/05/29 06:46:31;;;;;;;6.95;2.05;;;;;;;;;;5012211;28;20682;-62
2022/05/29 06:48:56;;;;;;;6.05;1.50;;;;;;;;;;4997483;28;20314;-62
2022/05/29 06:51:22;;;;;;;4.35;1.50;;;;;;;;;;5010343;28;20209;-62
2022/05/29 06:53:49;;;;;;;4.90;1.50;;;;;;;;;;5010301;28;20232;-61
2022/05/29 06:56:14;;;;;;;5.03;1.40;;;;;;;;;;5011762;28;20224;-62
2022/05/29 06:58:40;;;;;;;6.00;1.55;;;;;;;;;;5009166;28;20232;-61
2022/05/29 07:09:17;;;;;;;3.60;1.35;;;;;;;;;;5011803;28;20239;-61
2022/05/29 07:11:43;;;;;;;5.38;1.80;;;;;;;;;;5007632;28;20212;-61
2022/05/29 07:14:08;;;;;;;5.50;1.48;;;;;;;;;;5006334;28;20205;-62
2022/05/29 07:16:33;;;;;;;4.55;1.33;;;;;;;;;;5006207;28;20217;-62
2022/05/29 07:18:59;;;;;;;4.53;1.50;;;;;;;;;;5000621;28;20213;-62
2022/05/29 07:21:24;;;;;;;3.97;1.50;;;;;;;;;;4991662;28;20565;-62
2022/05/29 07:23:49;;;;;;;4.63;1.40;;;;;;;;;;5027089;28;20270;-61
2022/05/29 07:26:15;;;;;;;4.30;1.30;;;;;;;;;;5011808;28;20567;-62
2022/05/29 07:28:40;;;;;;;3.58;1.27;;;;;;;;;;5001871;28;20267;-62
2022/05/29 07:31:05;;;;;;;4.30;1.30;;;;;;;;;;5008710;28;20261;-61
2022/05/29 07:33:31;;;;;;;4.68;1.35;;;;;;;;;;5011472;28;20306;-62
2022/05/29 07:35:56;;;;;;;7.45;1.48;;;;;;;;;;5010668;28;20225;-62
2022/05/29 07:38:22;;;;;;;5.28;1.35;;;;;;;;;;5002664;28;20593;-61
2022/05/29 07:40:47;;;;;;;4.72;1.25;;;;;;;;;;5003921;28;20532;-61
2022/05/29 07:43:19;;;;;;;3.83;1.25;;;;;;;;;;5024245;28;20215;-62
2022/05/29 07:45:46;;;;;;;5.10;1.50;;;;;;;;;;5011454;28;20248;-61
2022/05/29 07:48:12;;;;;;;3.75;1.60;;;;;;;;;;5005043;28;20683;-61
2022/05/29 07:50:37;;;;;;;5.20;1.52;;;;;;;;;;4994033;28;20211;-61
2022/05/29 07:53:02;;;;;;;5.07;1.60;;;;;;;;;;5004170;28;20235;-62
2022/05/29 07:55:27;;;;;;;4.78;1.30;;;;;;;;;;5025766;28;20319;-62
2022/05/29 07:57:53;;;;;;;6.50;1.50;;;;;;;;;;5004057;28;20232;-62
2022/05/29 08:00:19;;;;;;;5.28;1.35;;;;;;;;;;5014010;28;20220;-61
2022/05/29 08:02:44;;;;;;;5.25;1.55;;;;;;;;;;5010422;28;20219;-62
2022/05/29 08:05:10;;;;;;;6.53;1.50;;;;;;;;;;5025377;28;20216;-62
2022/05/29 08:07:35;;;;;;;5.50;1.23;;;;;;;;;;5011819;28;20205;-62
2022/05/29 08:10:00;;;;;;;5.60;1.38;;;;;;;;;;4994179;28;20581;-62
2022/05/29 08:12:26;;;;;;;5.70;1.17;;;;;;;;;;5003092;28;20212;-61
2022/05/29 08:14:51;;;;;;;4.30;1.25;;;;;;;;;;5011065;28;20196;-61
2022/05/29 08:17:16;;;;;;;6.15;1.40;;;;;;;;;;5009604;28;20251;-62
2022/05/29 08:19:41;;;;;;;3.00;0.98;;;;;;;;;;5008752;28;20216;-62
2022/05/29 08:22:07;;;;;;;4.35;1.05;;;;;;;;;;4995557;28;20359;-62
2022/05/29 08:32:55;;;;;;;5.65;1.33;;;;;;;;;;5011382;28;20235;-62
2022/05/29 08:35:21;;;;;;;4.30;1.25;;;;;;;;;;5011087;28;20216;-62
2022/05/29 08:37:46;;;;;;;3.90;1.58;;;;;;;;;;5010069;28;20726;-62
2022/05/29 08:40:11;;;;;;;4.53;1.20;;;;;;;;;;5006195;28;20315;-61
2022/05/29 08:42:37;;;;;;;5.78;1.30;;;;;;;;;;5009286;28;20244;-62
2022/05/29 08:45:02;;;;;;;8.85;1.80;;;;;;;;;;5009693;28;20695;-61
2022/05/29 08:47:28;;;;;;;4.25;1.10;;;;;;;;;;5026075;28;20208;-61
2022/05/29 08:49:53;;;;;;;4.40;1.05;;;;;;;;;;5015325;28;20213;-61
2022/05/29 08:52:25;;;;;;;6.55;1.00;;;;;;;;;;5004243;28;20213;-61
2022/05/29 08:55:00;;;;;;;6.20;1.10;;;;;;;;;;5005930;28;20275;-61
2022/05/29 08:57:26;;;;;;;6.88;1.20;;;;;;;;;;4998189;28;20220;-61
2022/05/29 08:59:56;;;;;;;6.05;1.40;;;;;;;;;;5001335;28;20365;-61
2022/05/29 09:02:23;;;;;;;6.78;1.40;;;;;;;;;;5001839;28;20214;-61
2022/05/29 09:04:50;;;;;;;4.03;1.25;;;;;;;;;;5008841;28;20208;-61
2022/05/29 09:07:17;;;;;;;5.38;1.17;;;;;;;;;;5009347;28;20208;-61
2022/05/29 09:09:42;;;;;;;5.32;1.10;;;;;;;;;;5020304;28;20245;-61
2022/05/29 09:12:10;;;;;;;6.45;1.58;;;;;;;;;;4999412;28;20290;-61
2022/05/29 09:14:52;;;;;;;5.30;1.45;;;;;;;;;;5017005;28;20221;-61
2022/05/29 09:17:21;;;;;;;5.93;1.40;;;;;;;;;;4990652;28;20688;-62
2022/05/29 09:19:49;;;;;;;4.63;1.10;;;;;;;;;;5009840;28;20771;-61
2022/05/29 09:22:19;;;;;;;6.35;1.30;;;;;;;;;;5016109;28;20537;-61
2022/05/29 09:24:53;;;;;;;7.45;1.40;;;;;;;;;;5010482;28;20197;-61
2022/05/29 09:27:18;;;;;;;5.72;1.52;;;;;;;;;;5008607;28;20270;-61
2022/05/29 09:29:44;;;;;;;7.22;1.50;;;;;;;;;;5014526;28;20632;-61
2022/05/29 09:32:11;;;;;;;6.38;1.42;;;;;;;;;;5003050;28;20743;-61
2022/05/29 09:34:36;;;;;;;4.75;1.20;;;;;;;;;;5005359;28;20229;-61
2022/05/29 09:37:10;;;;;;;8.70;1.40;;;;;;;;;;4986299;28;20224;-61
2022/05/29 09:39:37;;;;;;;5.10;1.10;;;;;;;;;;4989369;28;20231;-61
2022/05/29 09:42:12;;;;;;;5.72;1.25;;;;;;;;;;4988632;28;20300;-61
2022/05/29 09:44:37;;;;;;;6.05;1.40;;;;;;;;;;4987778;28;20724;-61
2022/05/29 09:50:05;;;;;;;5.75;1.52;;;;;;;;;;4995334;28;20217;-61
2022/05/29 09:52:31;;;;;;;6.13;1.40;;;;;;;;;;4988424;28;20657;-61
2022/05/29 09:54:57;;;;;;;6.18;1.42;;;;;;;;;;4984836;28;20268;-61
2022/05/29 09:57:29;;;;;;;6.15;1.13;;;;;;;;;;4979189;28;20484;-61
2022/05/29 09:59:58;;;;;;;5.03;1.27;;;;;;;;;;4978951;28;20216;-61
2022/05/29 10:02:25;;;;;;;5.93;1.23;;;;;;;;;;4979907;28;20417;-61
2022/05/29 10:04:51;;;;;;;6.95;1.33;;;;;;;;;;4988471;28;20209;-61
2022/05/29 10:07:18;;;;;;;7.90;1.40;;;;;;;;;;4995900;28;20311;-61
2022/05/29 10:09:55;;;;;;;6.78;1.35;;;;;;;;;;4998732;28;20260;-61
2022/05/29 10:12:34;;;;;;;6.20;1.27;;;;;;;;;;4987522;28;20217;-62
2022/05/29 10:14:59;;;;;;;7.53;1.58;;;;;;;;;;4987448;28;20220;-61
2022/05/29 10:17:27;;;;;;;7.70;1.30;;;;;;;;;;4986191;28;20225;-61
2022/05/29 10:19:52;;;;;;;6.78;1.50;;;;;;;;;;4981203;28;20217;-61
2022/05/29 10:22:19;;;;;;;6.30;1.40;;;;;;;;;;4993253;28;20217;-61
2022/05/29 10:24:44;;;;;;;6.55;1.20;;;;;;;;;;4979544;28;20810;-63
2022/05/29 10:27:29;;;;;;;5.93;1.23;;;;;;;;;;4985214;28;20213;-61
2022/05/29 10:29:56;;;;;;;5.85;1.60;;;;;;;;;;4987170;28;20665;-62
2022/05/29 10:32:22;;;;;;;8.02;1.52;;;;;;;;;;4997779;28;20224;-62
2022/05/29 10:34:47;;;;;;;9.65;1.58;;;;;;;;;;4994584;28;20254;-62
2022/05/29 10:37:23;;;;;;;6.50;1.45;;;;;;;;;;5006703;28;20225;-62
2022/05/29 10:39:48;;;;;;;9.45;1.60;;;;;;;;;;5013422;28;20568;-61
2022/05/29 10:42:13;;;;;;;6.57;1.30;;;;;;;;;;5002451;28;20212;-61
2022/05/29 10:44:41;;;;;;;6.07;1.40;;;;;;;;;;5027129;28;20559;-61
2022/05/29 10:47:16;;;;;;;6.03;1.52;;;;;;;;;;4994102;28;20209;-61
2022/05/29 10:49:46;;;;;;;7.00;1.42;;;;;;;;;;4992855;28;20239;-61
2022/05/29 10:52:12;;;;;;;8.48;1.50;;;;;;;;;;4991399;28;20213;-61
2022/05/29 10:54:50;;;;;;;7.45;1.50;;;;;;;;;;5002834;28;20235;-61
2022/05/29 10:57:24;;;;;;;7.10;1.23;;;;;;;;;;5007974;28;20257;-61
2022/05/29 10:59:55;;;;;;;5.40;1.13;;;;;;;;;;4991850;28;20216;-62
2022/05/29 11:05:27;;;;;;;5.60;1.10;;;;;;;;;;5006434;28;20239;-61
2022/05/29 11:07:53;;;;;;;7.53;1.05;;;;;;;;;;5021403;28;20208;-61
2022/05/29 11:10:21;;;;;;;5.03;1.20;;;;;;;;;;5011360;28;20219;-61
2022/05/29 11:12:48;;;;;;;5.63;1.20;;;;;;;;;;5009299;28;20299;-61
2022/05/29 11:15:20;;;;;;;7.07;1.10;;;;;;;;;;5021129;28;20216;-62
2022/05/29 11:17:52;;;;;;;7.05;1.30;;;;;;;;;;4998447;28;20589;-62
2022/05/29 11:20:21;;;;;;;8.10;1.05;;;;;;;;;;5011112;28;20247;-61
2022/05/29 11:22:47;;;;;;;6.57;1.30;;;;;;;;;;5003500;28;20675;-61
2022/05/29 11:25:12;;;;;;;8.48;1.30;;;;;;;;;;4996775;28;20241;-62
2022/05/29 11:27:57;;;;;;;5.97;1.23;;;;;;;;;;5004178;28;20244;-61
2022/05/29 11:30:31;;;;;;;6.05;1.40;;;;;;;;;;5006940;28;20209;-61
2022/05/29 11:32:59;;;;;;;8.07;1.35;;;;;;;;;;5021752;28;20717;-61
2022/05/29 11:35:28;;;;;;;8.48;1.25;;;;;;;;;;4995493;28;20266;-62
2022/05/29 11:37:58;;;;;;;5.82;1.25;;;;;;;;;;5010052;28;20232;-61
2022/05/29 11:40:24;;;;;;;8.60;1.85;;;;;;;;;;5019741;28;20205;-61
2022/05/29 11:42:54;;;;;;;6.65;1.15;;;;;;;;;;4994529;28;20223;-61
2022/05/29 11:45:22;;;;;;;4.78;1.05;;;;;;;;;;5009711;28;20306;-61
2022/05/29 11:53:30;;;;;;;5.65;0.90;;;;;;;;;;5004585;28;20216;-61
2022/05/29 11:55:56;;;;;;;8.48;1.50;;;;;;;;;;5021565;28;20718;-61
2022/05/29 11:58:29;;;;;;;4.47;1.00;;;;;;;;;;5008173;28;20221;-62
2022/05/29 12:00:57;;;;;;;10.57;1.70;;;;;;;;;;5025233;28;20217;-61
2022/05/29 12:03:25;;;;;;;9.07;1.40;;;;;;;;;;5023667;28;20746;-62
2022/05/29 12:05:53;;;;;;;5.25;0.98;;;;;;;;;;5009486;28;20205;-62
2022/05/29 12:08:21;;;;;;;5.72;0.98;;;;;;;;;;5025342;28;20212;-61
2022/05/29 12:10:50;;;;;;;6.93;1.27;;;;;;;;;;5019426;28;20287;-61
2022/05/29 12:13:15;;;;;;;6.28;0.95;;;;;;;;;;4992347;28;20217;-62
2022/05/29 12:15:41;;;;;;;5.88;1.02;;;;;;;;;;4990629;28;20220;-61
2022/05/29 12:18:09;;;;;;;5.97;1.00;;;;;;;;;;5010663;28;20215;-61
2022/05/29 12:20:38;;;;;;;5.13;1.10;;;;;;;;;;5026391;28;20201;-61
2022/05/29 12:23:06;;;;;;;8.07;1.20;;;;;;;;;;4994505;28;20288;-62
2022/05/29 12:25:42;;;;;;;6.63;1.27;;;;;;;;;;4994979;28;20209;-61
2022/05/29 12:28:23;;;;;;;5.07;1.30;;;;;;;;;;5014556;28;20829;-61
2022/05/29 12:30:49;;;;;;;5.45;1.00;;;;;;;;;;5018971;28;20213;-61
2022/05/29 12:33:16;;;;;;;8.25;1.13;;;;;;;;;;5007156;28;20262;-61
2022/05/29 12:35:47;;;;;;;6.38;1.20;;;;;;;;;;5001963;28;20212;-61
2022/05/29 12:38:17;;;;;;;4.97;0.90;;;;;;;;;;5014844;28;20312;-61
2022/05/29 12:40:46;;;;;;;4.38;1.00;;;;;;;;;;5006402;28;20220;-61
2022/05/29 12:43:13;;;;;;;5.03;1.00;;;;;;;;;;4993862;28;20600;-61
2022/05/29 12:45:39;;;;;;;4.40;1.00;;;;;;;;;;5002081;28;20301;-61
2022/05/29 12:48:14;;;;;;;6.15;1.05;;;;;;;;;;4991020;28;20232;-61
2022/05/29 12:50:48;;;;;;;6.00;0.90;;;;;;;;;;5021783;28;20211;-61
2022/05/29 12:53:25;;;;;;;4.93;1.05;;;;;;;;;;5009596;28;20265;-61
2022/05/29 12:56:02;;;;;;;4.90;0.90;;;;;;;;;;5004571;28;20228;-62
2022/05/29 12:58:36;;;;;;;3.15;0.70;;;;;;;;;;5018572;28;20203;-61
2022/05/29 13:01:11;;;;;;;4.07;1.00;;;;;;;;;;5011249;28;20208;-61
2022/05/29 13:03:48;;;;;;;3.42;0.77;;;;;;;;;;4993481;28;20216;-62
2022/05/29 13:06:28;;;;;;;3.35;0.60;;;;;;;;;;4997532;28;20356;-61
2022/05/29 13:08:53;;;;;;;4.05;0.90;;;;;;;;;;5020569;28;20304;-61
2022/05/29 13:11:20;;;;;;;3.92;0.80;;;;;;;;;;4993497;28;20304;-61
2022/05/29 13:13:46;;;;;;;4.80;1.20;;;;;;;;;;5022729;28;20201;-61
2022/05/29 13:16:18;;;;;;;4.60;0.77;;;;;;;;;;4999931;28;20240;-61
2022/05/29 13:21:28;;;;;;;4.72;0.80;;;;;;;;;;5014113;28;20549;-62
2022/05/29 13:23:54;;;;;;;4.78;0.75;;;;;;;;;;5017014;28;20216;-62
2022/05/29 13:26:25;;;;;;;4.13;0.90;;;;;;;;;;5015546;28;20311;-61
2022/05/29 13:28:53;;;;;;;2.90;0.70;;;;;;;;;;5000373;28;20676;-61
2022/05/29 13:31:18;;;;;;;4.80;0.63;;;;;;;;;;5002998;28;20304;-61
2022/05/29 13:33:49;;;;;;;2.28;0.60;;;;;;;;;;5013087;28;20212;-61
2022/05/29 13:36:33;;;;;;;3.00;0.70;;;;;;;;;;5005090;28;20235;-61
2022/05/29 13:38:58;;;;;;;4.70;0.90;;;;;;;;;;5013696;28;20224;-61
2022/05/29 13:41:30;;;;;;;5.70;0.80;;;;;;;;;;4992313;28;20209;-61
2022/05/29 13:43:56;;;;;;;5.50;0.90;;;;;;;;;;5016629;28;20213;-62
2022/05/29 13:46:27;;;;;;;2.65;0.63;;;;;;;;;;4999699;28;20216;-61
2022/05/29 13:48:57;;;;;;;5.32;0.90;;;;;;;;;;5012337;28;20216;-62
2022/05/29 13:51:25;;;;;;;5.80;0.60;;;;;;;;;;5010947;28;20243;-62
2022/05/29 13:53:58;;;;;;;3.88;0.70;;;;;;;;;;5007849;28;20742;-61
2022/05/29 13:56:43;;;;;;;4.90;0.82;;;;;;;;;;5001117;28;20221;-61
2022/05/29 14:04:45;;;;;;;2.80;0.80;;;;;;;;;;4993962;28;20220;-61
2022/05/29 14:07:12;;;;;;;2.92;0.73;;;;;;;;;;5023573;28;20220;-61
2022/05/29 14:09:37;;;;;;;2.60;0.70;;;;;;;;;;4993109;28;20224;-61
2022/05/29 14:12:03;;;;;;;3.47;0.75;;;;;;;;;;5008124;28;20213;-61
2022/05/29 14:14:30;;;;;;;5.20;0.70;;;;;;;;;;5005332;28;20564;-61
2022/05/29 14:17:02;;;;;;;2.42;0.52;;;;;;;;;;4996144;28;20280;-62
2022/05/29 14:19:34;;;;;;;3.13;0.70;;;;;;;;;;5008350;28;20222;-62
2022/05/29 14:22:10;;;;;;;3.08;0.60;;;;;;;;;;5027608;28;20239;-62
2022/05/29 14:24:40;;;;;;;2.17;0.60;;;;;;;;;;5025858;28;20212;-61
2022/05/29 14:27:05;;;;;;;3.10;0.80;;;;;;;;;;5002589;28;20211;-61
2022/05/29 14:29:37;;;;;;;3.95;0.70;;;;;;;;;;5002149;28;20209;-62
2022/05/29 14:32:15;;;;;;;3.22;0.75;;;;;;;;;;4999403;28;20251;-62
2022/05/29 14:34:51;;;;;;;3.25;0.70;;;;;;;;;;5012781;28;20219;-61
2022/05/29 14:37:20;;;;;;;3.17;0.85;;;;;;;;;;4997445;28;20275;-62
2022/05/29 14:40:01;;;;;;;3.85;0.70;;;;;;;;;;5011273;28;20623;-61
2022/05/29 14:42:27;;;;;;;5.28;0.90;;;;;;;;;;5016418;28;20563;-61
2022/05/29 14:44:56;;;;;;;4.03;1.17;;;;;;;;;;5010166;28;20211;-61
2022/05/29 14:47:22;;;;;;;4.47;1.00;;;;;;;;;;5001575;28;20244;-61
2022/05/29 14:50:00;;;;;;;4.93;0.80;;;;;;;;;;5011697;28;20220;-62
2022/05/29 14:52:25;;;;;;;5.47;0.90;;;;;;;;;;5012620;28;20247;-61
2022/05/29 14:54:51;;;;;;;4.30;1.10;;;;;;;;;;4992572;28;20257;-61
2022/05/29 14:57:18;;;;;;;5.75;0.95;;;;;;;;;;5020261;28;20237;-62
2022/05/29 14:59:44;;;;;;;5.22;1.00;;;;;;;;;;5004244;28;20204;-61
2022/05/29 15:02:17;;;;;;;5.15;1.10;;;;;;;;;;5011874;28;20299;-61
2022/05/29 15:04:42;;;;;;;6.20;0.85;;;;;;;;;;5000079;28;20206;-61
2022/05/29 15:12:38;;;;;;;7.18;0.90;;;;;;;;;;5010026;28;20283;-61
2022/05/29 15:15:10;;;;;;;5.78;0.82;;;;;;;;;;5006948;28;20296;-61
2022/05/29 15:17:35;;;;;;;4.90;1.10;;;;;;;;;;5000873;28;20696;-61
2022/05/29 15:25:28;;;;;;;5.30;0.90;;;;;;;;;;5003889;28;20216;-61
2022/05/29 15:27:55;;;;;;;3.75;0.85;;;;;;;;;;4992064;28;20208;-61
2022/05/29 15:30:21;;;;;;;3.80;0.75;;;;;;;;;;5022854;28;20220;-61
2022/05/29 15:32:48;;;;;;;4.78;0.70;;;;;;;;;;5011111;28;20271;-61
2022/05/29 15:35:13;;;;;;;5.22;0.88;;;;;;;;;;5011450;28;20223;-61
2022/05/29 15:37:44;;;;;;;6.10;1.27;;;;;;;;;;5007591;28;20291;-62
2022/05/29 15:40:22;;;;;;;2.22;0.60;;;;;;;;;;4990611;28;20299;-61
2022/05/29 15:42:51;;;;;;;2.22;0.70;;;;;;;;;;5010277;28;20214;-61